Time;durP1;ratioP1;P1;durP2;ratioP2;P2;SDS_P1;SDS_P2;PMS_P1;PMS_P2;Temp;Humidity;BMP_temperature;BMP_pressure;BME280_temperature;BME280_humidity;BME280_pressure;Samples;Min_cycle;Max_cycle;Signal;HPM_P1;HPM_P2
2023/12/20 00:00:51;;;;;;;12.97;3.43;;;;;;;;;;5019827;28;20717;-77
2023/12/20 00:03:16;;;;;;;16.80;3.50;;;;;;;;;;5002009;28;20323;-77
2023/12/20 00:05:42;;;;;;;12.10;5.37;;;;;;;;;;5002020;28;20272;-77
2023/12/20 00:08:07;;;;;;;14.30;4.30;;;;;;;;;;5001730;28;20201;-76
2023/12/20 00:10:33;;;;;;;15.33;3.97;;;;;;;;;;5025013;28;20186;-77
2023/12/20 00:12:58;;;;;;;18.30;3.57;;;;;;;;;;5020489;28;20185;-77
2023/12/20 00:15:24;;;;;;;18.37;3.40;;;;;;;;;;5007304;28;20200;-77
2023/12/20 00:17:49;;;;;;;20.87;3.10;;;;;;;;;;5011768;28;20217;-77
2023/12/20 00:20:15;;;;;;;10.27;3.10;;;;;;;;;;5008696;28;20198;-77
2023/12/20 00:22:40;;;;;;;12.47;3.00;;;;;;;;;;5010695;28;20240;-77
2023/12/20 00:25:06;;;;;;;12.27;2.60;;;;;;;;;;5011132;28;20178;-76
2023/12/20 00:27:32;;;;;;;16.67;3.30;;;;;;;;;;5024563;28;20182;-77
2023/12/20 00:29:57;;;;;;;17.67;3.80;;;;;;;;;;5010368;28;20252;-76
2023/12/20 00:32:23;;;;;;;18.93;3.17;;;;;;;;;;5009252;28;20186;-77
2023/12/20 00:34:48;;;;;;;14.10;2.50;;;;;;;;;;5021919;28;20615;-77
2023/12/20 00:37:14;;;;;;;13.37;2.60;;;;;;;;;;5027088;28;20282;-76
2023/12/20 00:39:39;;;;;;;10.37;2.63;;;;;;;;;;5009910;28;20534;-76
2023/12/20 00:42:05;;;;;;;13.27;3.27;;;;;;;;;;5008741;28;20201;-76
2023/12/20 00:44:30;;;;;;;10.53;2.50;;;;;;;;;;5028291;28;20598;-76
2023/12/20 00:46:55;;;;;;;18.17;3.10;;;;;;;;;;5025021;28;20186;-78
2023/12/20 00:49:21;;;;;;;21.07;3.37;;;;;;;;;;5021873;28;20194;-76
2023/12/20 00:51:47;;;;;;;14.80;2.47;;;;;;;;;;5013462;28;20206;-76
2023/12/20 00:54:13;;;;;;;14.27;2.70;;;;;;;;;;5034962;28;20193;-76
2023/12/20 00:56:39;;;;;;;14.00;2.57;;;;;;;;;;5030678;28;20683;-76
2023/12/20 00:59:04;;;;;;;21.07;3.00;;;;;;;;;;5010981;28;20270;-75
2023/12/20 01:01:30;;;;;;;9.07;3.13;;;;;;;;;;5003621;28;20629;-77
2023/12/20 01:03:55;;;;;;;20.73;4.20;;;;;;;;;;5006665;28;20206;-77
2023/12/20 01:06:20;;;;;;;19.07;3.83;;;;;;;;;;4983568;28;20634;-77
2023/12/20 01:08:46;;;;;;;15.67;4.67;;;;;;;;;;4986819;28;20684;-77
2023/12/20 01:11:11;;;;;;;21.23;4.50;;;;;;;;;;5005347;28;20186;-77
2023/12/20 01:13:37;;;;;;;20.77;4.67;;;;;;;;;;5029586;28;20556;-77
2023/12/20 01:16:03;;;;;;;22.70;4.77;;;;;;;;;;5001605;28;20652;-77
2023/12/20 01:18:28;;;;;;;19.30;5.13;;;;;;;;;;5010539;28;20284;-77
2023/12/20 01:20:54;;;;;;;15.13;4.70;;;;;;;;;;5000611;28;20309;-77
2023/12/20 01:23:19;;;;;;;18.83;5.00;;;;;;;;;;5012104;28;20201;-77
2023/12/20 01:25:45;;;;;;;23.97;5.57;;;;;;;;;;5010894;28;20226;-77
2023/12/20 01:28:10;;;;;;;23.17;5.70;;;;;;;;;;5013596;28;20194;-77
2023/12/20 01:30:36;;;;;;;22.63;6.27;;;;;;;;;;5030259;28;20182;-76
2023/12/20 01:33:01;;;;;;;20.53;5.93;;;;;;;;;;5005691;28;20198;-76
2023/12/20 01:35:27;;;;;;;21.90;6.10;;;;;;;;;;5007125;28;20214;-76
2023/12/20 01:37:56;;;;;;;24.40;5.27;;;;;;;;;;5026597;28;20238;-76
2023/12/20 01:40:22;;;;;;;22.43;5.83;;;;;;;;;;5006752;28;20651;-75
2023/12/20 01:42:47;;;;;;;21.63;4.83;;;;;;;;;;5024420;28;20179;-75
2023/12/20 01:45:13;;;;;;;20.10;5.10;;;;;;;;;;4997147;28;20196;-75
2023/12/20 01:47:38;;;;;;;22.00;4.67;;;;;;;;;;5000032;28;20214;-75
2023/12/20 01:50:07;;;;;;;26.77;4.80;;;;;;;;;;5010505;28;20186;-75
2023/12/20 01:52:34;;;;;;;19.27;4.23;;;;;;;;;;5011752;28;20205;-75
2023/12/20 01:55:02;;;;;;;21.57;3.97;;;;;;;;;;5012033;28;20304;-76
2023/12/20 01:57:28;;;;;;;19.63;4.77;;;;;;;;;;5027257;28;20206;-76
2023/12/20 01:59:54;;;;;;;19.97;4.40;;;;;;;;;;4995376;28;20248;-76
2023/12/20 02:02:20;;;;;;;23.17;3.87;;;;;;;;;;5005459;28;20561;-76
2023/12/20 02:04:45;;;;;;;20.83;4.10;;;;;;;;;;5025284;28;20213;-76
2023/12/20 02:07:11;;;;;;;27.93;4.57;;;;;;;;;;5010648;28;20230;-76
2023/12/20 02:09:38;;;;;;;17.97;3.30;;;;;;;;;;4994912;28;20615;-76
2023/12/20 02:12:04;;;;;;;16.23;3.20;;;;;;;;;;5027380;28;20198;-76
2023/12/20 02:14:30;;;;;;;18.87;3.20;;;;;;;;;;5006738;28;20225;-75
2023/12/20 02:16:56;;;;;;;18.87;3.77;;;;;;;;;;5028876;28;20664;-75
2023/12/20 02:19:21;;;;;;;14.83;3.53;;;;;;;;;;4992680;28;20230;-76
2023/12/20 02:21:47;;;;;;;20.13;3.57;;;;;;;;;;5027890;28;20289;-75
2023/12/20 02:24:12;;;;;;;15.37;3.17;;;;;;;;;;5008683;28;20538;-76
2023/12/20 02:26:38;;;;;;;10.77;3.37;;;;;;;;;;5000666;28;20189;-75
2023/12/20 02:29:03;;;;;;;24.00;3.90;;;;;;;;;;5027909;28;20213;-75
2023/12/20 02:31:29;;;;;;;20.60;3.07;;;;;;;;;;5030309;28;20526;-76
2023/12/20 02:33:54;;;;;;;17.80;2.90;;;;;;;;;;5009756;28;20702;-76
2023/12/20 02:36:20;;;;;;;19.00;3.60;;;;;;;;;;5008830;28;20190;-75
2023/12/20 02:38:45;;;;;;;18.30;3.83;;;;;;;;;;4994999;28;20209;-75
2023/12/20 02:41:10;;;;;;;17.03;3.27;;;;;;;;;;5024026;28;20189;-76
2023/12/20 02:43:37;;;;;;;21.83;3.13;;;;;;;;;;5029808;28;20170;-76
2023/12/20 02:46:02;;;;;;;25.40;3.73;;;;;;;;;;5030365;28;20178;-76
2023/12/20 02:48:28;;;;;;;18.27;2.87;;;;;;;;;;4998674;28;20229;-77
2023/12/20 02:50:54;;;;;;;28.33;4.33;;;;;;;;;;5010356;28;20196;-76
2023/12/20 02:53:19;;;;;;;17.33;2.97;;;;;;;;;;5007813;28;20863;-76
2023/12/20 02:55:45;;;;;;;24.03;3.50;;;;;;;;;;5018482;28;20201;-76
2023/12/20 02:58:10;;;;;;;20.93;3.03;;;;;;;;;;5025769;28;20218;-76
2023/12/20 03:00:36;;;;;;;23.43;2.83;;;;;;;;;;5008482;28;20218;-76
2023/12/20 03:03:01;;;;;;;25.13;4.10;;;;;;;;;;5006965;28;20200;-76
2023/12/20 03:05:26;;;;;;;17.53;2.70;;;;;;;;;;5031572;28;20188;-76
2023/12/20 03:07:52;;;;;;;17.63;2.80;;;;;;;;;;5025598;28;20197;-76
2023/12/20 03:10:18;;;;;;;20.20;3.00;;;;;;;;;;5025984;28;20266;-76
2023/12/20 03:12:44;;;;;;;23.10;3.20;;;;;;;;;;5023075;28;20676;-76
2023/12/20 03:15:10;;;;;;;16.67;3.27;;;;;;;;;;5023311;28;20251;-76
2023/12/20 03:17:36;;;;;;;20.90;2.90;;;;;;;;;;5010478;28;20224;-75
2023/12/20 03:20:01;;;;;;;24.77;3.40;;;;;;;;;;4998928;28;20379;-76
2023/12/20 03:22:27;;;;;;;18.73;3.63;;;;;;;;;;5005935;28;20648;-76
2023/12/20 03:24:52;;;;;;;12.13;3.20;;;;;;;;;;5007906;28;20187;-77
2023/12/20 03:27:18;;;;;;;21.93;3.80;;;;;;;;;;4990740;28;20190;-75
2023/12/20 03:29:43;;;;;;;17.13;3.30;;;;;;;;;;4989438;28;20186;-76
2023/12/20 03:32:09;;;;;;;24.70;4.27;;;;;;;;;;5001919;28;20256;-75
2023/12/20 03:34:34;;;;;;;23.57;3.53;;;;;;;;;;5005627;28;20183;-76
2023/12/20 03:37:00;;;;;;;20.90;3.43;;;;;;;;;;5007869;28;20208;-75
2023/12/20 03:39:25;;;;;;;23.77;3.23;;;;;;;;;;4997544;28;20237;-75
2023/12/20 03:41:50;;;;;;;17.30;3.20;;;;;;;;;;4998219;28;20222;-76
2023/12/20 03:44:16;;;;;;;22.10;3.13;;;;;;;;;;4989230;28;20684;-76
2023/12/20 03:46:41;;;;;;;23.37;3.43;;;;;;;;;;4989947;28;20202;-76
2023/12/20 03:49:07;;;;;;;18.47;4.10;;;;;;;;;;5008211;28;20198;-77
2023/12/20 03:51:32;;;;;;;23.67;3.90;;;;;;;;;;4994090;28;20186;-77
2023/12/20 03:53:57;;;;;;;18.87;3.40;;;;;;;;;;4999351;28;20187;-77
2023/12/20 03:56:23;;;;;;;16.67;3.37;;;;;;;;;;5000950;28;20190;-76
2023/12/20 03:58:48;;;;;;;21.73;3.67;;;;;;;;;;4998467;28;20205;-77
2023/12/20 04:01:14;;;;;;;22.87;4.13;;;;;;;;;;4995929;28;20195;-76
2023/12/20 04:03:40;;;;;;;22.40;3.97;;;;;;;;;;4989082;28;20183;-77
2023/12/20 04:06:06;;;;;;;25.53;4.53;;;;;;;;;;5003092;28;20228;-77
2023/12/20 04:08:31;;;;;;;20.70;3.07;;;;;;;;;;5008114;28;20187;-76
2023/12/20 04:10:56;;;;;;;28.20;4.00;;;;;;;;;;4995414;28;20533;-77
2023/12/20 04:13:22;;;;;;;28.77;3.93;;;;;;;;;;4999488;28;20199;-77
2023/12/20 04:15:50;;;;;;;24.03;3.63;;;;;;;;;;5004275;28;20195;-76
2023/12/20 04:18:15;;;;;;;23.27;3.27;;;;;;;;;;5010020;28;20709;-77
2023/12/20 04:20:41;;;;;;;24.40;3.57;;;;;;;;;;5006734;28;20197;-76
2023/12/20 04:23:06;;;;;;;22.70;4.03;;;;;;;;;;5028159;28;20522;-77
2023/12/20 04:25:31;;;;;;;24.73;4.23;;;;;;;;;;5020197;28;20190;-76
2023/12/20 04:27:57;;;;;;;22.93;3.20;;;;;;;;;;5026842;28;20183;-77
2023/12/20 04:30:22;;;;;;;21.50;3.80;;;;;;;;;;4996183;28;20185;-76
2023/12/20 04:32:48;;;;;;;20.07;3.23;;;;;;;;;;5024726;28;20234;-76
2023/12/20 04:35:13;;;;;;;25.23;4.10;;;;;;;;;;5027360;28;20436;-76
2023/12/20 04:37:39;;;;;;;26.23;3.67;;;;;;;;;;5029895;28;20205;-76
2023/12/20 04:40:05;;;;;;;25.33;4.00;;;;;;;;;;5014951;28;20247;-75
2023/12/20 04:42:30;;;;;;;26.47;4.00;;;;;;;;;;5030493;28;20194;-76
2023/12/20 04:44:56;;;;;;;23.17;4.07;;;;;;;;;;5001527;28;20317;-77
2023/12/20 04:47:22;;;;;;;24.47;3.53;;;;;;;;;;5033917;28;20189;-76
2023/12/20 04:49:47;;;;;;;20.20;3.67;;;;;;;;;;5014051;28;20182;-76
2023/12/20 04:52:13;;;;;;;24.57;3.53;;;;;;;;;;5030713;28;20721;-77
2023/12/20 04:54:38;;;;;;;25.80;3.67;;;;;;;;;;5009304;28;20183;-77
2023/12/20 04:57:04;;;;;;;31.23;4.03;;;;;;;;;;5030163;28;20339;-76
2023/12/20 04:59:29;;;;;;;30.57;4.67;;;;;;;;;;5023032;28;20319;-76
2023/12/20 05:01:55;;;;;;;29.33;3.60;;;;;;;;;;5030094;28;20190;-74
2023/12/20 05:04:20;;;;;;;25.53;3.73;;;;;;;;;;5026634;28;20361;-74
2023/12/20 05:06:45;;;;;;;23.00;4.10;;;;;;;;;;5027471;28;20186;-74
2023/12/20 05:09:11;;;;;;;23.50;3.23;;;;;;;;;;5007587;28;20664;-74
2023/12/20 05:11:36;;;;;;;26.77;3.93;;;;;;;;;;5030722;28;20190;-75
2023/12/20 05:14:02;;;;;;;21.50;3.73;;;;;;;;;;5028091;28;20213;-73
2023/12/20 05:16:27;;;;;;;22.37;3.60;;;;;;;;;;5028660;28;20190;-74
2023/12/20 05:18:52;;;;;;;18.07;4.00;;;;;;;;;;5027150;28;20545;-75
2023/12/20 05:21:18;;;;;;;25.27;3.50;;;;;;;;;;5008329;28;20229;-76
2023/12/20 05:23:43;;;;;;;30.87;3.70;;;;;;;;;;5028214;28;20182;-74
2023/12/20 05:26:09;;;;;;;33.03;5.23;;;;;;;;;;5023713;28;20214;-75
2023/12/20 05:28:34;;;;;;;24.87;4.10;;;;;;;;;;5001885;28;20182;-74
2023/12/20 05:31:00;;;;;;;21.87;3.37;;;;;;;;;;5009997;28;20186;-75
2023/12/20 05:33:25;;;;;;;24.83;3.83;;;;;;;;;;5029170;28;20221;-74
2023/12/20 05:35:51;;;;;;;22.83;3.90;;;;;;;;;;4984689;28;20534;-74
2023/12/20 05:38:16;;;;;;;23.50;4.23;;;;;;;;;;5025476;28;20226;-75
2023/12/20 05:40:42;;;;;;;27.13;3.57;;;;;;;;;;5009032;28;20212;-75
2023/12/20 05:43:07;;;;;;;22.90;3.53;;;;;;;;;;5006939;28;20187;-75
2023/12/20 05:45:32;;;;;;;25.80;4.17;;;;;;;;;;5028729;28;20186;-74
2023/12/20 05:47:58;;;;;;;29.97;4.13;;;;;;;;;;5011140;28;20218;-74
2023/12/20 05:50:24;;;;;;;25.50;3.73;;;;;;;;;;5004525;28;20236;-74
2023/12/20 05:52:50;;;;;;;23.50;3.30;;;;;;;;;;4995129;28;22054;-74
2023/12/20 05:55:15;;;;;;;26.53;3.40;;;;;;;;;;5023226;28;20178;-73
2023/12/20 05:57:43;;;;;;;23.80;4.03;;;;;;;;;;5028006;28;20220;-74
2023/12/20 06:00:09;;;;;;;19.77;3.30;;;;;;;;;;5024914;28;20190;-74
2023/12/20 06:02:36;;;;;;;19.50;3.27;;;;;;;;;;5010094;28;20195;-74
2023/12/20 06:05:02;;;;;;;22.87;3.57;;;;;;;;;;5013308;28;20186;-74
2023/12/20 06:07:28;;;;;;;33.40;3.77;;;;;;;;;;5003177;28;20201;-75
2023/12/20 06:09:53;;;;;;;21.37;3.40;;;;;;;;;;5009241;28;20629;-76
2023/12/20 06:12:18;;;;;;;26.50;3.53;;;;;;;;;;5029706;28;20190;-74
2023/12/20 06:14:44;;;;;;;25.60;4.03;;;;;;;;;;5025293;28;20272;-75
2023/12/20 06:17:09;;;;;;;27.87;4.57;;;;;;;;;;4999108;28;20300;-75
2023/12/20 06:19:35;;;;;;;30.13;4.10;;;;;;;;;;5025343;28;20666;-73
2023/12/20 06:22:00;;;;;;;19.43;3.37;;;;;;;;;;5026391;28;20594;-74
2023/12/20 06:24:27;;;;;;;21.47;3.57;;;;;;;;;;5013157;28;20265;-73
2023/12/20 06:26:54;;;;;;;27.20;3.77;;;;;;;;;;5023333;28;20195;-75
2023/12/20 06:29:21;;;;;;;21.50;3.13;;;;;;;;;;5007089;28;20309;-73
2023/12/20 06:31:47;;;;;;;24.00;3.27;;;;;;;;;;5022340;28;20672;-74
2023/12/20 06:34:12;;;;;;;21.30;3.63;;;;;;;;;;4999432;28;20198;-75
2023/12/20 06:36:37;;;;;;;23.67;3.57;;;;;;;;;;5004172;28;20725;-74
2023/12/20 06:39:04;;;;;;;20.55;3.58;;;;;;;;;;5022359;28;20194;-74
2023/12/20 06:41:30;;;;;;;20.10;3.37;;;;;;;;;;5011067;28;20684;-74
2023/12/20 06:43:55;;;;;;;26.43;3.10;;;;;;;;;;5008730;28;20304;-73
2023/12/20 06:46:21;;;;;;;23.67;3.67;;;;;;;;;;5007178;28;20201;-74
2023/12/20 06:48:46;;;;;;;25.70;3.23;;;;;;;;;;4998959;28;20869;-73
2023/12/20 06:51:15;;;;;;;21.73;3.33;;;;;;;;;;4970384;28;20605;-74
2023/12/20 06:53:40;;;;;;;26.10;3.67;;;;;;;;;;4979110;28;20269;-74
2023/12/20 06:56:07;;;;;;;29.93;3.43;;;;;;;;;;4981988;28;20614;-74
2023/12/20 06:58:32;;;;;;;24.37;3.30;;;;;;;;;;4978227;28;20586;-74
2023/12/20 07:00:58;;;;;;;25.87;3.70;;;;;;;;;;4974784;28;21765;-73
2023/12/20 07:03:23;;;;;;;23.47;3.77;;;;;;;;;;4979546;28;20304;-73
2023/12/20 07:05:49;;;;;;;28.03;3.70;;;;;;;;;;4998348;28;20197;-75
2023/12/20 07:08:15;;;;;;;26.13;3.70;;;;;;;;;;5011826;28;20201;-75
2023/12/20 07:10:41;;;;;;;22.37;3.23;;;;;;;;;;4997625;28;20776;-75
2023/12/20 07:13:07;;;;;;;23.83;3.37;;;;;;;;;;5013906;28;20200;-74
2023/12/20 07:15:33;;;;;;;19.10;3.17;;;;;;;;;;5006578;28;20249;-75
2023/12/20 07:18:00;;;;;;;20.97;3.23;;;;;;;;;;5009331;28;20224;-73
2023/12/20 07:20:26;;;;;;;24.17;3.67;;;;;;;;;;5006974;28;20190;-73
2023/12/20 07:22:51;;;;;;;30.20;4.10;;;;;;;;;;5023753;28;20201;-76
2023/12/20 07:25:17;;;;;;;20.57;3.60;;;;;;;;;;4332858;28;10000805;-76
2023/12/20 07:27:42;;;;;;;27.37;3.53;;;;;;;;;;5006455;28;20190;-75
2023/12/20 07:30:08;;;;;;;20.53;4.03;;;;;;;;;;5001308;28;20580;-74
2023/12/20 07:32:33;;;;;;;25.87;4.07;;;;;;;;;;5006167;28;20190;-75
2023/12/20 07:34:59;;;;;;;23.83;3.90;;;;;;;;;;5007433;28;20244;-74
2023/12/20 07:37:24;;;;;;;18.77;3.40;;;;;;;;;;5005531;28;20194;-74
2023/12/20 07:39:50;;;;;;;28.00;3.83;;;;;;;;;;5019375;28;20189;-74
2023/12/20 07:42:15;;;;;;;23.00;2.92;;;;;;;;;;5026263;28;20552;-74
2023/12/20 07:44:41;;;;;;;22.77;4.17;;;;;;;;;;5001300;28;20723;-75
2023/12/20 07:47:06;;;;;;;22.33;3.50;;;;;;;;;;4997904;28;20194;-74
2023/12/20 07:49:32;;;;;;;22.00;3.40;;;;;;;;;;5010629;28;20221;-74
2023/12/20 07:51:57;;;;;;;21.93;3.30;;;;;;;;;;4997020;28;20191;-75
2023/12/20 07:54:23;;;;;;;21.38;2.72;;;;;;;;;;5018244;28;20545;-75
2023/12/20 07:56:49;;;;;;;25.27;3.60;;;;;;;;;;4996760;28;20886;-74
2023/12/20 07:59:14;;;;;;;28.50;3.40;;;;;;;;;;5005442;28;20238;-74
2023/12/20 08:01:40;;;;;;;19.27;3.45;;;;;;;;;;5012994;28;20221;-75
2023/12/20 08:04:05;;;;;;;26.57;3.13;;;;;;;;;;5004370;28;20579;-74
2023/12/20 08:06:31;;;;;;;26.27;4.03;;;;;;;;;;5003471;28;21627;-76
2023/12/20 08:08:57;;;;;;;17.93;3.10;;;;;;;;;;4991555;28;20190;-74
2023/12/20 08:11:22;;;;;;;26.17;3.90;;;;;;;;;;4994742;28;21171;-74
2023/12/20 08:13:48;;;;;;;15.83;2.83;;;;;;;;;;4989290;28;20220;-74
2023/12/20 08:16:15;;;;;;;27.90;3.53;;;;;;;;;;4959108;28;20208;-74
2023/12/20 08:18:40;;;;;;;21.45;3.25;;;;;;;;;;5004072;28;20233;-74
2023/12/20 08:21:08;;;;;;;25.52;4.20;;;;;;;;;;5012219;28;20201;-73
2023/12/20 08:23:34;;;;;;;23.98;4.18;;;;;;;;;;5022233;28;20649;-74
2023/12/20 08:26:06;;;;;;;22.43;4.27;;;;;;;;;;5006509;28;20656;-74
2023/12/20 08:28:32;;;;;;;28.30;4.17;;;;;;;;;;5022797;28;20248;-73
2023/12/20 08:30:58;;;;;;;22.60;3.40;;;;;;;;;;5020151;28;20198;-75
2023/12/20 08:33:24;;;;;;;18.30;3.27;;;;;;;;;;5000975;28;20281;-76
2023/12/20 08:35:49;;;;;;;23.33;3.80;;;;;;;;;;5001522;28;20543;-75
2023/12/20 08:38:16;;;;;;;23.73;3.28;;;;;;;;;;5005084;28;20206;-74
2023/12/20 08:40:41;;;;;;;25.08;4.20;;;;;;;;;;5022591;28;20193;-76
2023/12/20 08:43:07;;;;;;;22.27;3.45;;;;;;;;;;4995926;28;20197;-74
2023/12/20 08:45:32;;;;;;;22.13;3.63;;;;;;;;;;5011696;28;20194;-75
2023/12/20 08:47:59;;;;;;;24.67;3.83;;;;;;;;;;4981857;28;20275;-74
2023/12/20 08:50:25;;;;;;;23.53;3.93;;;;;;;;;;4985564;28;20194;-74
2023/12/20 08:52:51;;;;;;;18.33;3.73;;;;;;;;;;4978712;28;20697;-73
2023/12/20 08:55:18;;;;;;;21.85;3.05;;;;;;;;;;5000358;28;20716;-74
2023/12/20 08:57:43;;;;;;;18.38;3.22;;;;;;;;;;5004343;28;20210;-74
2023/12/20 09:00:09;;;;;;;25.80;3.60;;;;;;;;;;5021594;28;20593;-75
2023/12/20 09:02:38;;;;;;;24.13;3.42;;;;;;;;;;5002057;28;20599;-73
2023/12/20 09:05:03;;;;;;;20.97;3.77;;;;;;;;;;5022562;28;20186;-73
2023/12/20 09:07:31;;;;;;;29.23;3.80;;;;;;;;;;5005971;28;20189;-74
2023/12/20 09:09:57;;;;;;;30.83;4.80;;;;;;;;;;5021697;28;20567;-74
2023/12/20 09:12:24;;;;;;;30.77;5.15;;;;;;;;;;5009329;28;20186;-80
2023/12/20 09:14:51;;;;;;;23.40;3.93;;;;;;;;;;4990679;28;20221;-78
2023/12/20 09:17:18;;;;;;;22.60;4.93;;;;;;;;;;5014028;28;20641;-79
2023/12/20 09:19:43;;;;;;;28.43;5.27;;;;;;;;;;5028594;28;20574;-79
2023/12/20 09:22:09;;;;;;;26.30;4.43;;;;;;;;;;5021515;28;20201;-79
2023/12/20 09:24:35;;;;;;;20.57;3.90;;;;;;;;;;4974938;28;20337;-78
2023/12/20 09:27:01;;;;;;;21.00;3.90;;;;;;;;;;5028188;28;20186;-78
2023/12/20 09:29:26;;;;;;;29.50;4.50;;;;;;;;;;5025062;28;20191;-79
2023/12/20 09:31:51;;;;;;;30.80;4.87;;;;;;;;;;5020540;28;20190;-77
2023/12/20 09:34:17;;;;;;;25.60;4.60;;;;;;;;;;5018749;28;20604;-78
2023/12/20 09:36:46;;;;;;;28.27;4.73;;;;;;;;;;5015437;28;20216;-79
2023/12/20 09:39:19;;;;;;;23.43;4.27;;;;;;;;;;5031421;28;20251;-79
2023/12/20 09:41:46;;;;;;;23.10;4.40;;;;;;;;;;5012336;28;20229;-79
2023/12/20 09:44:15;;;;;;;25.70;4.40;;;;;;;;;;5038362;28;20201;-80
2023/12/20 09:46:44;;;;;;;32.10;5.03;;;;;;;;;;5018308;28;25455;-79
2023/12/20 09:49:10;;;;;;;22.90;4.13;;;;;;;;;;5009118;28;20236;-81
2023/12/20 09:51:36;;;;;;;32.83;4.93;;;;;;;;;;5016400;28;20190;-79
2023/12/20 09:54:04;;;;;;;30.93;4.63;;;;;;;;;;5017761;28;20176;-81
2023/12/20 09:56:30;;;;;;;30.67;4.93;;;;;;;;;;5051984;28;20228;-80
2023/12/20 09:58:56;;;;;;;34.33;5.43;;;;;;;;;;5014293;28;20194;-79
2023/12/20 10:01:21;;;;;;;29.30;5.80;;;;;;;;;;5053676;28;20189;-78
2023/12/20 10:03:51;;;;;;;28.65;5.20;;;;;;;;;;5014973;28;20190;-78
2023/12/20 10:06:16;;;;;;;29.08;5.25;;;;;;;;;;5037828;28;20257;-77
2023/12/20 10:08:42;;;;;;;30.33;4.85;;;;;;;;;;5028742;28;20665;-77
2023/12/20 10:11:08;;;;;;;27.27;4.90;;;;;;;;;;5016010;28;20607;-78
2023/12/20 10:13:34;;;;;;;28.23;5.03;;;;;;;;;;5026311;28;20653;-75
2023/12/20 10:15:59;;;;;;;35.33;5.00;;;;;;;;;;5028764;28;20198;-77
2023/12/20 10:18:24;;;;;;;26.33;4.50;;;;;;;;;;5008208;28;20222;-75
2023/12/20 10:20:50;;;;;;;27.92;4.18;;;;;;;;;;5010191;28;20219;-76
2023/12/20 10:23:16;;;;;;;25.17;4.10;;;;;;;;;;5009004;28;20273;-76
2023/12/20 10:25:41;;;;;;;23.67;3.92;;;;;;;;;;5010046;28;20197;-76
2023/12/20 10:28:18;;;;;;;29.92;4.40;;;;;;;;;;5027357;28;20175;-76
2023/12/20 10:30:44;;;;;;;31.63;3.88;;;;;;;;;;5013284;28;20212;-77
2023/12/20 10:33:10;;;;;;;25.48;3.72;;;;;;;;;;5013745;28;20221;-76
2023/12/20 10:35:37;;;;;;;31.90;4.00;;;;;;;;;;5012783;28;20213;-76
2023/12/20 10:38:05;;;;;;;19.70;3.90;;;;;;;;;;5012390;28;20198;-75
2023/12/20 10:40:31;;;;;;;23.60;3.95;;;;;;;;;;5000225;28;20178;-76
2023/12/20 10:42:59;;;;;;;24.88;3.78;;;;;;;;;;4994818;28;20178;-75
2023/12/20 10:45:25;;;;;;;27.15;4.70;;;;;;;;;;5021434;28;20182;-76
2023/12/20 10:47:51;;;;;;;29.55;4.10;;;;;;;;;;5009722;28;20213;-75
2023/12/20 10:50:18;;;;;;;23.55;3.88;;;;;;;;;;5017581;28;20181;-76
2023/12/20 10:52:45;;;;;;;21.33;3.30;;;;;;;;;;5030315;28;20512;-75
2023/12/20 10:55:11;;;;;;;19.93;4.00;;;;;;;;;;5028446;28;20198;-75
2023/12/20 10:57:36;;;;;;;21.73;3.58;;;;;;;;;;5031781;28;20747;-74
2023/12/20 11:00:05;;;;;;;19.58;4.20;;;;;;;;;;5012493;28;20174;-74
2023/12/20 11:02:39;;;;;;;20.00;3.33;;;;;;;;;;4998028;28;20193;-73
2023/12/20 11:05:44;;;;;;;18.15;3.45;;;;;;;;;;5024740;28;20185;-75
2023/12/20 11:08:20;;;;;;;26.63;3.53;;;;;;;;;;5006486;28;20243;-76
2023/12/20 11:11:03;;;;;;;26.33;4.30;;;;;;;;;;5012575;28;20186;-77
2023/12/20 11:13:36;;;;;;;31.30;4.57;;;;;;;;;;5010665;28;20208;-76
2023/12/20 11:16:02;;;;;;;21.93;4.00;;;;;;;;;;5010123;28;20170;-78
2023/12/20 11:18:30;;;;;;;27.47;4.30;;;;;;;;;;5008958;28;20230;-80
2023/12/20 11:21:04;;;;;;;20.63;4.47;;;;;;;;;;5011305;28;20207;-79
2023/12/20 11:23:33;;;;;;;31.85;4.68;;;;;;;;;;5017042;28;20691;-80
2023/12/20 11:25:58;;;;;;;22.08;3.58;;;;;;;;;;5003627;28;20555;-80
2023/12/20 11:28:26;;;;;;;28.55;4.00;;;;;;;;;;4671661;28;10000364;-79
2023/12/20 11:30:55;;;;;;;21.30;4.15;;;;;;;;;;5008676;28;20281;-79
2023/12/20 11:33:23;;;;;;;22.27;3.67;;;;;;;;;;5006055;28;20208;-80
2023/12/20 11:35:48;;;;;;;6.63;1.40;;;;;;;;;;4994904;28;20228;-81
2023/12/20 11:38:14;;;;;;;12.17;2.07;;;;;;;;;;5011815;28;20221;-77
2023/12/20 11:40:44;;;;;;;7.80;1.83;;;;;;;;;;5002051;28;20197;-78
2023/12/20 11:43:09;;;;;;;8.47;1.37;;;;;;;;;;5010079;28;20190;-77
2023/12/20 11:45:35;;;;;;;14.70;1.30;;;;;;;;;;5027245;28;20223;-79
2023/12/20 11:48:02;;;;;;;8.30;1.33;;;;;;;;;;4997034;28;20186;-79
2023/12/20 11:50:29;;;;;;;10.93;1.70;;;;;;;;;;4991424;28;20323;-79
2023/12/20 11:52:55;;;;;;;5.50;1.63;;;;;;;;;;4997576;28;20193;-79
2023/12/20 11:55:21;;;;;;;7.40;1.40;;;;;;;;;;5007463;28;20206;-79
2023/12/20 11:57:47;;;;;;;10.20;1.90;;;;;;;;;;4992617;28;20222;-79
2023/12/20 12:00:14;;;;;;;11.63;1.87;;;;;;;;;;4966363;28;20196;-79
2023/12/20 12:02:40;;;;;;;13.40;1.83;;;;;;;;;;5010065;28;20206;-80
2023/12/20 12:05:06;;;;;;;10.23;1.87;;;;;;;;;;4993067;28;20208;-79
2023/12/20 12:07:32;;;;;;;12.10;2.00;;;;;;;;;;4991934;28;20186;-79
2023/12/20 12:09:58;;;;;;;9.17;1.70;;;;;;;;;;5019029;28;20692;-79
2023/12/20 12:12:25;;;;;;;20.07;2.00;;;;;;;;;;5009462;28;20557;-80
2023/12/20 12:14:50;;;;;;;10.77;1.93;;;;;;;;;;5000033;28;20252;-79
2023/12/20 12:17:16;;;;;;;12.15;1.75;;;;;;;;;;5008508;28;20218;-80
2023/12/20 12:19:42;;;;;;;7.93;1.77;;;;;;;;;;4994916;28;20234;-79
2023/12/20 12:22:16;;;;;;;8.60;1.65;;;;;;;;;;4996199;28;20768;-78
2023/12/20 12:24:45;;;;;;;6.90;1.73;;;;;;;;;;4989439;28;20277;-78
2023/12/20 12:27:12;;;;;;;7.30;1.70;;;;;;;;;;4997771;28;20999;-79
2023/12/20 12:29:38;;;;;;;10.67;1.50;;;;;;;;;;4994462;28;20645;-79
2023/12/20 12:32:08;;;;;;;7.45;1.20;;;;;;;;;;4983377;28;20213;-80
2023/12/20 12:34:35;;;;;;;8.47;1.67;;;;;;;;;;4999766;28;20196;-80
2023/12/20 12:37:01;;;;;;;11.07;1.40;;;;;;;;;;5015581;28;20281;-79
2023/12/20 12:39:27;;;;;;;11.77;1.37;;;;;;;;;;5004200;28;20194;-79
2023/12/20 12:41:53;;;;;;;8.95;1.42;;;;;;;;;;5006077;28;20185;-79
2023/12/20 12:44:19;;;;;;;9.77;1.43;;;;;;;;;;4985469;28;20273;-78
2023/12/20 12:46:50;;;;;;;4.20;1.40;;;;;;;;;;4985120;28;20361;-77
2023/12/20 12:49:16;;;;;;;10.47;1.90;;;;;;;;;;4969180;28;20257;-78
2023/12/20 12:51:42;;;;;;;7.72;1.10;;;;;;;;;;4988423;28;20190;-77
2023/12/20 12:54:09;;;;;;;10.27;1.80;;;;;;;;;;5002954;28;20500;-79
2023/12/20 12:56:35;;;;;;;8.13;1.20;;;;;;;;;;5015530;28;20545;-77
2023/12/20 12:59:01;;;;;;;12.90;2.00;;;;;;;;;;5029854;28;20222;-80
2023/12/20 13:01:26;;;;;;;6.90;1.10;;;;;;;;;;5025849;28;20186;-79
2023/12/20 13:03:52;;;;;;;8.67;1.23;;;;;;;;;;5028307;28;20192;-78
2023/12/20 13:06:17;;;;;;;9.40;1.40;;;;;;;;;;5014411;28;20290;-78
2023/12/20 13:08:44;;;;;;;13.30;1.50;;;;;;;;;;5032667;28;20540;-79
2023/12/20 13:11:09;;;;;;;17.07;1.93;;;;;;;;;;4994229;28;20225;-78
2023/12/20 13:13:35;;;;;;;8.67;1.67;;;;;;;;;;5013778;28;20583;-78
2023/12/20 13:16:00;;;;;;;10.57;1.77;;;;;;;;;;5008991;28;20202;-78
2023/12/20 13:18:26;;;;;;;7.80;1.80;;;;;;;;;;5010391;28;20722;-78
2023/12/20 13:20:52;;;;;;;13.32;1.92;;;;;;;;;;4989878;28;20195;-78
2023/12/20 13:23:20;;;;;;;7.67;2.13;;;;;;;;;;5004022;28;20220;-78
2023/12/20 13:25:46;;;;;;;11.88;2.10;;;;;;;;;;5033003;28;20186;-78
2023/12/20 13:28:12;;;;;;;11.77;2.03;;;;;;;;;;5015499;28;20939;-77
2023/12/20 13:30:38;;;;;;;11.93;2.20;;;;;;;;;;5005196;28;20225;-77
2023/12/20 13:33:05;;;;;;;8.02;1.67;;;;;;;;;;5014122;28;20198;-77
2023/12/20 13:35:31;;;;;;;16.73;2.45;;;;;;;;;;5030078;28;20201;-79
2023/12/20 13:37:57;;;;;;;11.00;2.97;;;;;;;;;;5013691;28;20222;-78
2023/12/20 13:40:23;;;;;;;11.25;2.70;;;;;;;;;;5009448;28;20197;-78
2023/12/20 13:42:48;;;;;;;9.87;2.80;;;;;;;;;;5017493;28;20195;-78
2023/12/20 13:45:14;;;;;;;9.73;2.70;;;;;;;;;;5011193;28;20277;-78
2023/12/20 13:47:39;;;;;;;15.32;2.50;;;;;;;;;;5009256;28;20637;-77
2023/12/20 13:50:05;;;;;;;15.65;2.70;;;;;;;;;;4970299;28;20186;-78
2023/12/20 13:52:31;;;;;;;12.43;3.00;;;;;;;;;;5004140;28;20198;-78
2023/12/20 13:54:56;;;;;;;12.80;3.08;;;;;;;;;;5003445;28;20212;-77
2023/12/20 13:57:21;;;;;;;13.82;2.70;;;;;;;;;;5001706;28;20214;-79
2023/12/20 13:59:47;;;;;;;14.32;2.90;;;;;;;;;;5005709;28;20586;-80
2023/12/20 14:02:13;;;;;;;14.15;3.10;;;;;;;;;;5004061;28;20648;-79
2023/12/20 14:04:39;;;;;;;19.90;3.17;;;;;;;;;;5007971;28;20248;-79
2023/12/20 14:07:05;;;;;;;16.20;2.88;;;;;;;;;;5000012;28;20187;-78
2023/12/20 14:09:30;;;;;;;18.08;3.40;;;;;;;;;;5009667;28;20203;-78
2023/12/20 14:11:56;;;;;;;14.90;3.47;;;;;;;;;;5011887;28;20193;-79
2023/12/20 14:14:21;;;;;;;20.65;3.42;;;;;;;;;;5011862;28;20198;-79
2023/12/20 14:16:46;;;;;;;13.95;3.50;;;;;;;;;;5006118;28;20190;-79
2023/12/20 14:19:12;;;;;;;24.20;4.30;;;;;;;;;;5019806;28;20761;-79
2023/12/20 14:21:37;;;;;;;23.15;3.83;;;;;;;;;;4994477;28;20191;-79
2023/12/20 14:24:03;;;;;;;25.48;4.10;;;;;;;;;;4986839;28;20205;-79